createdAt,value
2023-05-09T00:01:12.874Z,11.10
2023-05-09T00:04:16.249Z,11.04
2023-05-09T00:07:17.971Z,11.01
2023-05-09T00:10:19.835Z,10.96
2023-05-09T00:13:21.559Z,10.92
2023-05-09T00:16:24.285Z,10.86
2023-05-09T00:19:26.581Z,10.83
2023-05-09T00:22:28.803Z,10.80
2023-05-09T00:25:30.408Z,10.77
2023-05-09T00:28:32.562Z,10.72
2023-05-09T00:31:34.731Z,10.70
2023-05-09T00:34:36.931Z,10.68
2023-05-09T00:37:39.034Z,10.67
2023-05-09T00:40:41.356Z,10.66
2023-05-09T00:43:43.410Z,10.65
2023-05-09T00:46:47.084Z,10.65
2023-05-09T00:49:49.201Z,10.65
2023-05-09T00:52:51.834Z,10.63
2023-05-09T00:55:55.910Z,10.63
2023-05-09T00:58:58.837Z,10.64
2023-05-09T01:02:01.066Z,10.63
2023-05-09T01:05:03.417Z,10.62
2023-05-09T01:08:18.290Z,10.56
2023-05-09T01:11:52.734Z,10.58
2023-05-09T01:15:26.892Z,10.57
2023-05-09T01:18:55.506Z,10.51
2023-05-09T01:21:59.490Z,10.48
2023-05-09T01:25:26.919Z,10.44
2023-05-09T01:28:58.363Z,10.40
2023-05-09T01:32:04.722Z,10.35
2023-05-09T01:35:09.033Z,10.33
2023-05-09T01:38:19.045Z,10.27
2023-05-09T01:41:24.252Z,10.22
2023-05-09T01:44:33.152Z,10.18
2023-05-09T01:47:35.995Z,10.15
2023-05-09T01:50:40.431Z,10.12
2023-05-09T01:53:43.705Z,10.07
2023-05-09T01:56:46.784Z,10.05
2023-05-09T01:59:49.361Z,9.98
2023-05-09T02:02:52.335Z,9.98
2023-05-09T02:05:56.700Z,9.96
2023-05-09T02:08:59.659Z,9.94
2023-05-09T02:12:02.226Z,9.90
2023-05-09T02:15:06.593Z,9.88
2023-05-09T02:18:08.502Z,9.85
2023-05-09T02:21:11.680Z,9.82
2023-05-09T02:24:14.127Z,9.79
2023-05-09T02:27:17.903Z,9.76
2023-05-09T02:30:25.687Z,9.74
2023-05-09T02:33:29.310Z,9.70
2023-05-09T02:36:33.201Z,9.68
2023-05-09T02:39:36.200Z,9.60
2023-05-09T02:42:38.468Z,9.60
2023-05-09T02:45:40.242Z,9.56
2023-05-09T02:48:42.002Z,9.52
2023-05-09T02:51:44.001Z,9.49
2023-05-09T02:54:46.292Z,9.43
2023-05-09T02:57:49.274Z,9.41
2023-05-09T03:00:54.449Z,9.38
2023-05-09T03:03:56.343Z,9.35
2023-05-09T03:06:58.220Z,9.31
2023-05-09T03:10:06.333Z,9.27
2023-05-09T03:13:08.728Z,9.23
2023-05-09T03:16:14.175Z,9.21
2023-05-09T03:19:16.663Z,9.19
2023-05-09T03:22:19.633Z,9.13
2023-05-09T03:25:29.771Z,9.09
2023-05-09T03:28:31.568Z,9.06
2023-05-09T03:31:37.445Z,9.02
2023-05-09T03:34:39.321Z,8.98
2023-05-09T03:37:41.040Z,8.98
2023-05-09T03:40:43.948Z,8.95
2023-05-09T03:43:47.348Z,8.92
2023-05-09T03:46:50.133Z,8.93
2023-05-09T03:49:53.789Z,8.92
2023-05-09T03:52:57.903Z,8.93
2023-05-09T03:55:59.591Z,8.95
2023-05-09T03:59:02.682Z,8.95
2023-05-09T04:02:04.514Z,8.97
2023-05-09T04:05:06.487Z,9.00
2023-05-09T04:08:09.008Z,9.03
2023-05-09T04:11:11.808Z,9.06
2023-05-09T04:14:18.591Z,9.07
2023-05-09T04:17:21.316Z,9.11
2023-05-09T04:20:23.461Z,9.14
2023-05-09T04:23:25.707Z,9.18
2023-05-09T04:26:30.000Z,9.21
2023-05-09T04:29:32.924Z,9.25
2023-05-09T04:32:37.196Z,9.30
2023-05-09T04:35:38.887Z,9.35
2023-05-09T04:38:41.950Z,9.40
2023-05-09T04:41:49.794Z,9.43
2023-05-09T04:44:52.506Z,9.48
2023-05-09T04:47:56.957Z,9.52
2023-05-09T04:50:59.054Z,9.54
2023-05-09T04:54:01.266Z,9.61
2023-05-09T04:57:17.201Z,9.70
2023-05-09T05:00:28.027Z,9.73
2023-05-09T05:03:29.863Z,9.79
2023-05-09T05:06:32.079Z,9.85
2023-05-09T05:09:35.024Z,9.88
2023-05-09T05:12:37.114Z,9.93
2023-05-09T05:15:42.917Z,9.95
2023-05-09T05:18:45.788Z,10.00
2023-05-09T05:21:47.984Z,10.04
2023-05-09T05:24:50.005Z,10.13
2023-05-09T05:27:52.637Z,10.21
2023-05-09T05:30:55.414Z,10.30
2023-05-09T05:33:57.112Z,10.35
2023-05-09T05:36:59.932Z,10.38
2023-05-09T05:40:02.244Z,10.49
2023-05-09T05:43:05.129Z,10.56
2023-05-09T05:46:09.008Z,10.58
2023-05-09T05:49:11.633Z,10.66
2023-05-09T05:52:13.370Z,10.70
2023-05-09T05:55:15.526Z,10.73
2023-05-09T05:58:17.616Z,10.77
2023-05-09T06:01:19.715Z,10.82
2023-05-09T06:04:23.031Z,10.87
2023-05-09T06:07:24.955Z,10.87
2023-05-09T06:10:27.222Z,10.88
2023-05-09T06:13:28.827Z,10.99
2023-05-09T06:16:36.356Z,11.05
2023-05-09T06:19:38.576Z,11.13
2023-05-09T06:22:40.924Z,11.20
2023-05-09T06:25:43.608Z,11.27
2023-05-09T06:28:45.690Z,11.36
2023-05-09T06:31:48.071Z,11.44
2023-05-09T06:34:50.222Z,11.54
2023-05-09T06:37:51.896Z,11.61
2023-05-09T06:40:53.544Z,11.69
2023-05-09T06:43:56.840Z,11.79
2023-05-09T06:46:58.603Z,11.87
2023-05-09T06:50:00.718Z,11.94
2023-05-09T06:53:02.442Z,12.00
2023-05-09T06:56:04.928Z,12.06
2023-05-09T06:59:07.761Z,12.17
2023-05-09T07:02:09.873Z,12.27
2023-05-09T07:05:11.553Z,12.34
2023-05-09T07:08:15.372Z,12.44
2023-05-09T07:11:18.049Z,12.48
2023-05-09T07:14:20.535Z,12.54
2023-05-09T07:17:24.146Z,12.59
2023-05-09T07:20:26.019Z,12.68
2023-05-09T07:23:27.794Z,12.74
2023-05-09T07:26:29.912Z,12.82
2023-05-09T07:29:32.593Z,12.87
2023-05-09T07:32:34.749Z,12.92
2023-05-09T07:35:36.351Z,12.96
2023-05-09T07:38:40.169Z,13.01
2023-05-09T07:41:42.286Z,13.08
2023-05-09T07:44:45.520Z,13.13
2023-05-09T07:47:48.103Z,13.18
2023-05-09T07:50:50.270Z,13.25
2023-05-09T07:53:52.417Z,13.33
2023-05-09T07:56:54.727Z,13.36
2023-05-09T07:59:56.409Z,13.39
2023-05-09T08:02:58.277Z,13.39
2023-05-09T08:06:01.412Z,13.48
2023-05-09T08:09:04.746Z,13.57
2023-05-09T08:12:06.695Z,13.64
2023-05-09T08:15:08.702Z,13.74
2023-05-09T08:18:11.183Z,13.76
2023-05-09T08:21:13.868Z,13.81
2023-05-09T08:24:15.572Z,13.86
2023-05-09T08:27:17.175Z,13.94
2023-05-09T08:30:19.359Z,14.06
2023-05-09T08:33:21.067Z,14.13
2023-05-09T08:36:23.852Z,14.21
2023-05-09T08:39:25.947Z,14.35
2023-05-09T08:42:29.729Z,14.44
2023-05-09T08:45:35.614Z,14.53
2023-05-09T08:48:37.703Z,14.62
2023-05-09T08:51:40.433Z,14.73
2023-05-09T08:54:42.920Z,14.84
2023-05-09T08:57:46.751Z,14.97
2023-05-09T09:00:50.325Z,15.05
2023-05-09T09:03:53.344Z,15.10
2023-05-09T09:06:55.994Z,15.21
2023-05-09T09:09:59.248Z,15.27
2023-05-09T09:13:04.999Z,15.39
2023-05-09T09:16:11.359Z,15.45
2023-05-09T09:19:17.233Z,15.51
2023-05-09T09:22:20.071Z,15.60
2023-05-09T09:25:21.648Z,15.66
2023-05-09T09:28:23.385Z,15.71
2023-05-09T09:31:30.400Z,15.78
2023-05-09T09:34:32.869Z,15.82
2023-05-09T09:37:36.491Z,15.85
2023-05-09T09:40:40.576Z,15.93
2023-05-09T09:43:47.115Z,15.99
2023-05-09T09:46:55.029Z,16.05
2023-05-09T09:49:57.225Z,16.11
2023-05-09T09:53:00.990Z,16.19
2023-05-09T09:56:02.594Z,16.26
2023-05-09T09:59:13.384Z,16.39
2023-05-09T10:02:16.556Z,16.48
2023-05-09T10:05:26.521Z,16.59
2023-05-09T10:08:28.613Z,16.67
2023-05-09T10:11:30.953Z,16.73
2023-05-09T10:14:35.540Z,16.78
2023-05-09T10:17:38.114Z,16.87
2023-05-09T10:20:41.718Z,16.99
2023-05-09T10:23:48.527Z,17.05
2023-05-09T10:26:53.644Z,17.12
2023-05-09T10:30:08.874Z,17.25
2023-05-09T10:33:15.441Z,17.32
2023-05-09T10:36:20.896Z,17.39
2023-05-09T10:39:23.669Z,17.47
2023-05-09T10:42:26.047Z,17.58
2023-05-09T10:45:28.372Z,17.64
2023-05-09T10:48:33.007Z,17.76
2023-05-09T10:51:35.033Z,17.81
2023-05-09T10:54:37.530Z,17.86
2023-05-09T10:57:39.461Z,17.95
2023-05-09T11:00:42.533Z,18.01
2023-05-09T11:03:57.184Z,18.13
2023-05-09T11:07:00.854Z,18.31
2023-05-09T11:10:10.677Z,18.46
2023-05-09T11:13:13.279Z,18.60
2023-05-09T11:16:15.563Z,18.71
2023-05-09T11:19:53.696Z,18.78
2023-05-09T11:23:01.169Z,18.94
2023-05-09T11:26:07.824Z,19.03
2023-05-09T11:29:11.527Z,19.08
2023-05-09T11:32:15.065Z,19.09
2023-05-09T11:35:20.743Z,19.10
2023-05-09T11:38:23.071Z,19.11
2023-05-09T11:41:25.754Z,19.09
2023-05-09T11:44:28.530Z,19.10
2023-05-09T11:47:30.862Z,19.15
2023-05-09T11:50:33.314Z,19.23
2023-05-09T11:53:35.408Z,19.24
2023-05-09T11:56:40.322Z,19.25
2023-05-09T11:59:42.487Z,19.31
2023-05-09T12:02:48.665Z,19.38
2023-05-09T12:05:50.956Z,19.42
2023-05-09T12:08:58.659Z,19.54
2023-05-09T12:12:01.217Z,19.65
2023-05-09T12:15:07.089Z,19.74
2023-05-09T12:18:09.062Z,19.80
2023-05-09T12:21:11.601Z,19.86
2023-05-09T12:24:13.199Z,19.94
2023-05-09T12:27:15.002Z,20.02
2023-05-09T12:30:18.623Z,20.11
2023-05-09T12:33:21.289Z,20.24
2023-05-09T12:36:25.028Z,20.33
2023-05-09T12:39:27.288Z,20.42
2023-05-09T12:42:29.573Z,20.54
2023-05-09T12:45:34.233Z,20.66
2023-05-09T12:48:39.084Z,20.69
2023-05-09T12:51:48.863Z,20.79
2023-05-09T12:54:53.206Z,20.95
2023-05-09T12:58:00.906Z,21.12
2023-05-09T13:01:05.035Z,21.32
2023-05-09T13:04:07.583Z,21.50
2023-05-09T13:07:10.371Z,21.67
2023-05-09T13:10:19.337Z,21.87
2023-05-09T13:13:23.156Z,22.06
2023-05-09T13:16:25.389Z,22.32
2023-05-09T13:19:27.484Z,22.54
2023-05-09T13:22:29.165Z,22.80
2023-05-09T13:25:31.790Z,23.06
2023-05-09T13:28:33.474Z,23.22
2023-05-09T13:31:35.739Z,23.27
2023-05-09T13:34:37.319Z,23.43
2023-05-09T13:37:39.453Z,23.69
2023-05-09T13:40:41.751Z,23.93
2023-05-09T13:43:45.057Z,24.17
2023-05-09T13:46:47.195Z,24.36
2023-05-09T13:49:49.266Z,24.54
2023-05-09T13:52:50.927Z,24.78
2023-05-09T13:55:52.525Z,24.92
2023-05-09T13:58:54.464Z,25.07
2023-05-09T14:01:58.708Z,25.20
2023-05-09T14:05:03.064Z,25.35
2023-05-09T14:08:04.941Z,25.46
2023-05-09T14:11:08.871Z,25.58
2023-05-09T14:14:11.154Z,25.63
2023-05-09T14:17:13.446Z,25.74
2023-05-09T14:20:16.096Z,25.77
2023-05-09T14:23:19.358Z,25.80
2023-05-09T14:26:21.009Z,25.89
2023-05-09T14:29:22.989Z,25.94
2023-05-09T14:32:25.729Z,26.04
2023-05-09T14:35:28.037Z,26.07
2023-05-09T14:38:29.772Z,26.00
2023-05-09T14:41:31.912Z,25.88
2023-05-09T14:44:33.808Z,25.95
2023-05-09T14:47:35.979Z,25.95
2023-05-09T14:50:38.181Z,26.00
2023-05-09T14:53:41.838Z,26.10
2023-05-09T14:56:43.679Z,26.17
2023-05-09T14:59:45.382Z,26.22
2023-05-09T15:02:47.214Z,26.21
2023-05-09T15:05:50.453Z,26.23
2023-05-09T15:08:52.814Z,26.23
2023-05-09T15:11:55.212Z,26.22
2023-05-09T15:15:16.287Z,26.19
2023-05-09T15:18:20.127Z,26.10
2023-05-09T15:21:22.204Z,26.00
2023-05-09T15:24:23.854Z,25.94
2023-05-09T15:27:27.424Z,25.88
2023-05-09T15:30:29.102Z,25.69
2023-05-09T15:33:31.809Z,25.59
2023-05-09T15:36:36.966Z,25.52
2023-05-09T15:39:43.706Z,25.51
2023-05-09T15:42:48.171Z,25.45
2023-05-09T15:45:51.230Z,25.39
2023-05-09T15:48:55.368Z,25.32
2023-05-09T15:51:58.314Z,25.16
2023-05-09T15:55:00.971Z,25.03
2023-05-09T15:58:04.237Z,24.93
2023-05-09T16:01:09.144Z,24.83
2023-05-09T16:04:11.362Z,24.70
2023-05-09T16:07:12.976Z,24.52
2023-05-09T16:10:15.837Z,24.33
2023-05-09T16:13:19.177Z,24.17
2023-05-09T16:16:20.881Z,24.03
2023-05-09T16:19:22.648Z,23.90
2023-05-09T16:22:25.389Z,23.76
2023-05-09T16:25:28.505Z,23.59
2023-05-09T16:28:30.720Z,23.43
2023-05-09T16:31:35.505Z,23.33
2023-05-09T16:34:38.596Z,23.18
2023-05-09T16:37:40.160Z,23.04
2023-05-09T16:40:42.294Z,22.87
2023-05-09T16:43:43.994Z,22.69
2023-05-09T16:46:47.178Z,22.49
2023-05-09T16:49:50.326Z,22.28
2023-05-09T16:52:52.624Z,22.15
2023-05-09T16:55:54.766Z,21.98
2023-05-09T16:58:56.423Z,21.81
2023-05-09T17:01:59.170Z,21.68
2023-05-09T17:05:01.300Z,21.57
2023-05-09T17:08:03.197Z,21.42
2023-05-09T17:11:05.428Z,21.31
2023-05-09T17:14:07.080Z,21.23
2023-05-09T17:17:09.144Z,21.11
2023-05-09T17:20:11.821Z,21.00
2023-05-09T17:23:13.636Z,20.86
2023-05-09T17:26:15.771Z,20.77
2023-05-09T17:29:17.450Z,20.68
2023-05-09T17:32:20.060Z,20.61
2023-05-09T17:35:23.199Z,20.52
2023-05-09T17:38:24.911Z,20.42
2023-05-09T17:41:26.836Z,20.35
2023-05-09T17:44:28.556Z,20.27
2023-05-09T17:47:30.939Z,20.18
2023-05-09T17:50:34.057Z,20.11
2023-05-09T17:53:36.119Z,20.05
2023-05-09T17:56:37.731Z,19.99
2023-05-09T17:59:41.600Z,19.87
2023-05-09T18:02:43.731Z,19.80
2023-05-09T18:05:46.139Z,19.71
2023-05-09T18:08:48.684Z,19.63
2023-05-09T18:11:50.711Z,19.54
2023-05-09T18:14:53.376Z,19.44
2023-05-09T18:17:57.573Z,19.36
2023-05-09T18:20:59.858Z,19.29
2023-05-09T18:24:01.994Z,19.22
2023-05-09T18:27:04.254Z,19.15
2023-05-09T18:30:07.659Z,19.09
2023-05-09T18:33:09.731Z,19.01
2023-05-09T18:36:11.609Z,18.94
2023-05-09T18:39:14.257Z,18.86
2023-05-09T18:42:16.512Z,18.80
2023-05-09T18:45:18.733Z,18.72
2023-05-09T18:48:21.674Z,18.65
2023-05-09T18:51:25.232Z,18.59
2023-05-09T18:54:27.494Z,18.52
2023-05-09T18:57:29.204Z,18.46
2023-05-09T19:00:30.919Z,18.39
2023-05-09T19:03:33.058Z,18.34
2023-05-09T19:06:34.747Z,18.28
2023-05-09T19:09:36.828Z,18.21
2023-05-09T19:12:39.042Z,18.17
2023-05-09T19:15:41.046Z,18.11
2023-05-09T19:18:43.678Z,18.09
2023-05-09T19:21:45.365Z,18.05
2023-05-09T19:24:47.104Z,17.99
2023-05-09T19:27:49.692Z,17.93
2023-05-09T19:30:52.098Z,17.90
2023-05-09T19:33:54.130Z,17.88
2023-05-09T19:36:55.793Z,17.83
2023-05-09T19:39:58.532Z,17.80
2023-05-09T19:43:01.590Z,17.77
2023-05-09T19:46:03.708Z,17.76
2023-05-09T19:49:06.169Z,17.72
2023-05-09T19:52:09.029Z,17.70
2023-05-09T19:55:10.900Z,17.67
2023-05-09T19:58:12.527Z,17.61
2023-05-09T20:01:19.286Z,17.59
2023-05-09T20:04:22.211Z,17.54
2023-05-09T20:07:23.859Z,17.51
2023-05-09T20:10:26.373Z,17.46
2023-05-09T20:13:28.382Z,17.46
2023-05-09T20:16:30.679Z,17.41
2023-05-09T20:19:35.173Z,17.36
2023-05-09T20:22:37.196Z,17.34
2023-05-09T20:25:39.272Z,17.32
2023-05-09T20:28:41.512Z,17.28
2023-05-09T20:31:43.646Z,17.14
2023-05-09T20:34:45.786Z,16.95
2023-05-09T20:37:48.758Z,16.76
2023-05-09T20:40:51.017Z,16.58
2023-05-09T20:43:53.233Z,16.37
2023-05-09T20:46:54.858Z,16.26
2023-05-09T20:49:58.364Z,16.12
2023-05-09T20:53:01.201Z,15.94
2023-05-09T20:56:04.397Z,15.80
2023-05-09T20:59:06.717Z,15.74
2023-05-09T21:02:10.662Z,15.67
2023-05-09T21:05:12.735Z,15.61
2023-05-09T21:08:14.809Z,15.51
2023-05-09T21:11:18.722Z,15.45
2023-05-09T21:14:20.763Z,15.40
2023-05-09T21:17:22.838Z,15.37
2023-05-09T21:20:24.465Z,15.29
2023-05-09T21:23:26.490Z,15.22
2023-05-09T21:26:29.122Z,15.17
2023-05-09T21:29:31.940Z,15.12
2023-05-09T21:32:33.619Z,15.10
2023-05-09T21:35:35.269Z,15.07
2023-05-09T21:38:37.813Z,14.98
2023-05-09T21:41:40.602Z,14.93
2023-05-09T21:44:42.971Z,14.87
2023-05-09T21:47:45.090Z,14.85
2023-05-09T21:50:46.838Z,14.82
2023-05-09T21:53:48.496Z,14.76
2023-05-09T21:56:50.213Z,14.70
2023-05-09T21:59:51.830Z,14.68
2023-05-09T22:02:54.562Z,14.68
2023-05-09T22:05:56.208Z,14.63
2023-05-09T22:08:57.814Z,14.61
2023-05-09T22:12:00.116Z,14.60
2023-05-09T22:15:01.949Z,14.60
2023-05-09T22:18:03.690Z,14.61
2023-05-09T22:21:06.356Z,14.61
2023-05-09T22:24:09.565Z,14.60
2023-05-09T22:27:11.669Z,14.59
2023-05-09T22:30:14.088Z,14.52
2023-05-09T22:33:16.304Z,14.57
2023-05-09T22:36:18.130Z,14.56
2023-05-09T22:39:20.329Z,14.51
2023-05-09T22:42:22.518Z,14.52
2023-05-09T22:45:24.234Z,14.53
2023-05-09T22:48:25.828Z,14.53
2023-05-09T22:51:28.377Z,14.53
2023-05-09T22:54:30.373Z,14.52
2023-05-09T22:57:31.997Z,14.52
2023-05-09T23:00:33.988Z,14.51
2023-05-09T23:03:37.168Z,14.51
2023-05-09T23:06:38.826Z,14.51
2023-05-09T23:09:41.462Z,14.50
2023-05-09T23:12:43.563Z,14.49
2023-05-09T23:15:47.080Z,14.47
2023-05-09T23:18:49.794Z,14.44
2023-05-09T23:21:51.613Z,14.43
2023-05-09T23:24:53.711Z,14.43
2023-05-09T23:27:55.833Z,14.41
2023-05-09T23:30:57.471Z,14.36
2023-05-09T23:33:59.940Z,14.38
2023-05-09T23:37:02.202Z,14.33
2023-05-09T23:40:05.039Z,14.30
2023-05-09T23:43:07.339Z,14.28
2023-05-09T23:46:09.426Z,14.25
2023-05-09T23:49:13.660Z,14.22
2023-05-09T23:52:15.748Z,14.20
2023-05-09T23:55:18.171Z,14.20
2023-05-09T23:58:19.804Z,14.16
